Weather at Taftanaz Airbase

Public forecast

Using degrees Celsius for public forecast. Weather courtesy of forecast.io.

Closest aviation weather report (METAR) to Taftanaz Airbase

Report is more than 2 hours old.

Closest report is Aleppo International Airport, 24.8 nm (45.9 km) ENE.

2024/04/16 15:00 (retrieved 2 hours ago)

OSAP 161500Z 13004KT CAVOK 28/10 Q1016

Closest aviation forecast (TAF) to Taftanaz Airbase

Forecast is more than 12 hours old.

Closest forecast is Aleppo International Airport, 24.8 nm (45.9 km) ENE.

2024/04/15 18:00 (retrieved 23 hours ago)

TAF OSAP 151700Z 1518/1618 VRB03KT CAVOK BECMG 1607/1609 32006KT 9999 SCT030